KSAN

San Diego International Airport

San Diego, California, USA
METAR KSAN 210451Z 20006KT 10SM OVC017 23/18 A2996 RMK AO2 SLP144 T02280178
Observed Flight Rules
Aug-21 @ 04:51 UTC (9 hours ago) Marginal Visual Flight Rules
Wind Visibility Clouds
200° at 6 knots 10 miles
  • Overcast at 1,700' AGL
Temperatures Readings
Current 23°C / 73°F
Dewpoint 18°C / 64°F
Humidity 74%
Altimeter 29.96" Hg
Pressure 1014.4 hPa
Elevation 12
METAR KSAN 210451Z 20006KT 10SM OVC017 23/18 A2996 RMK AO2 SLP144 T02280178
Observed Flight Rules
Aug-21 @ 04:51 UTC
(9 hours ago)
MVFR
Wind Visibility
200° at 6 knots 10 miles
Clouds
  • Overcast at 1,700' AGL
Temperature Dewpoint
23°C / 73°F 18°C / 64°F
Humidity Altimeter Pressure
74% 29.96" Hg 1014.4 hPa